Surface/Precipitation History
11/19/2017 14:15  to  11/20/2017 14:15
Change End Date:
Date/Time
(MST)
Sf
Temp Chem Water Layer Surface Precipitation
Sfc Pvt Sub Frz Factor Pct Dpth DpthThk IcePct Cond Salin FI Type Intens Accum Rate
11/20/2017 14:01 Wet 35.8F - 34F 32F 40 1% 0.00 in - 0% 1 mhos 134 - Yes - - -
11/20/2017 13:55 Wet 35.8F - 34F 32F 35 0% 0.00 in - 0% 1 mhos 105 - Yes - - -
11/20/2017 13:46 Wet 35.8F - 34F 32F 95 0% 0.00 in - 0% 1 mhos 129 - Yes - - -
11/20/2017 13:45 Wet 35.8F - 34F 32F 70 0% 0.00 in - 0% 1 mhos 130 - Yes - - -
11/20/2017 13:35 Wet 36.3F - 34F 32F 60 1% 0.00 in - 0% 1 mhos 133 - Yes - - -
11/20/2017 13:31 Wet 36.5F - 34F 32F 35 0% 0.00 in - 0% 1 mhos 126 - Yes - - -
11/20/2017 13:25 Wet 36.1F - 34F 32F 95 0% 0.00 in - 0% 1 mhos 129 - Yes - - -
11/20/2017 13:16 Wet 35.8F - 34F 32F 95 1% 0.00 in - 0% 2 mhos 159 - Yes - - -
11/20/2017 13:15 Wet 36.0F - 34F 32F 95 1% 0.00 in - 0% 2 mhos 163 - Yes - - -
11/20/2017 13:05 Wet 35.8F - 34F 32F 95 1% 0.00 in - 0% 2 mhos 175 - Yes - - -
11/20/2017 13:01 Wet 35.6F - 34F 32F 55 1% 0.00 in - 0% 1 mhos 144 - Yes - - -
11/20/2017 12:55 Wet 35.4F - 34F 32F 95 1% 0.00 in - 0% 2 mhos 183 - Yes - - -
11/20/2017 12:46 Wet 34.7F - 34F 32F 95 1% 0.00 in - 0% 2 mhos 178 - Yes - - -
11/20/2017 12:45 Wet 34.7F - 34F 32F 95 1% 0.00 in - 0% 2 mhos 177 - Yes - - -
11/20/2017 12:35 Wet 34.2F - 34F 32F 95 1% 0.00 in - 0% 1 mhos 143 - Yes - - -
Date/Time
(MST)
Sf
Temp Chem Water Layer Surface Precipitation
Sfc Pvt Sub Frz Factor Pct Dpth DpthThk IcePct Cond Salin FI Type Intens Accum Rate
11/20/2017 12:31 Wet 33.4F - 34F 32F 95 1% 0.00 in - 0% 1 mhos 142 - Yes - - -
11/20/2017 12:25 Wet 32.7F - 34F 32F 95 1% 0.00 in - 0% 1 mhos 133 - Yes - - -
11/20/2017 12:16 Wet 32.5F - 34F 32F 50 1% 0.00 in - 0% 1 mhos 142 - Yes - - -
11/20/2017 12:15 Wet 32.5F - 34F 32F 95 1% 0.00 in - 0% 1 mhos 153 - Yes - - -
11/20/2017 12:05 Wet 32.4F - 34F 32F 95 0% 0.00 in - 0% 1 mhos 115 - Yes - - -
11/20/2017 12:01 Wet 32.4F - 34F 32F 95 1% 0.00 in - 0% 2 mhos 181 - Yes - - -
11/20/2017 11:55 Wet 32.4F - 34F 32F 95 1% 0.00 in - 0% 2 mhos 192 - Yes - - -
11/20/2017 11:46 Wet 32.2F - 34F 32F 95 1% 0.00 in - 0% 2 mhos 216 - Yes - - -
11/20/2017 11:45 Wet 32.2F - 34F 32F 95 1% 0.00 in - 0% 2 mhos 224 - Yes - - -
11/20/2017 11:35 Wet 32.2F - 34F 32F 95 1% 0.00 in - 0% 2 mhos 238 - Yes - - -
11/20/2017 11:31 Wet 32.2F - 34F 32F 95 1% 0.00 in - 0% 3 mhos 280 - Yes - - -
11/20/2017 11:24 Wet 32.5F - 34F 32F 95 1% 0.00 in - 0% 3 mhos 365 - Yes - - -
11/20/2017 11:16 Wet 32.9F - 34F 31F 95 2% 0.00 in - 0% 4 mhos 440 - Yes - - -
11/20/2017 11:14 Wet 32.9F - 34F 31F 95 2% 0.00 in - 0% 4 mhos 449 - Yes - - -
11/20/2017 11:04 Wet 33.3F - 34F 32F 75 1% 0.00 in - 0% 2 mhos 201 - Yes - - -
Date/Time
(MST)
Sf
Temp Chem Water Layer Surface Precipitation
Sfc Pvt Sub Frz Factor Pct Dpth DpthThk IcePct Cond Salin FI Type Intens Accum Rate
11/20/2017 11:01 Wet 32.9F - 34F 31F 95 2% 0.00 in - 0% 5 mhos 501 - Yes - - -
11/20/2017 10:54 Wet 32.7F - 34F 32F 95 1% 0.00 in - 0% 3 mhos 356 - Yes - - -
11/20/2017 10:46 Wet 32.2F - 34F 32F 95 2% 0.00 in - 0% 4 mhos 419 - Yes - - -
11/20/2017 10:44 Wet 32.4F - 34F 32F 95 1% 0.00 in - 0% 4 mhos 383 - Yes - - -
11/20/2017 10:34 Wet 32.5F - 34F 32F 95 1% 0.10 in - 0% 4 mhos 382 - Yes - - -
11/20/2017 10:31 Wet 32.2F - 34F 32F 95 1% 0.10 in - 0% 4 mhos 388 - Yes - - -
11/20/2017 10:24 Chemically Wet 32.0F - 34F 32F 95 2% 0.10 in - 0% 4 mhos 417 - Yes - - -
11/20/2017 10:16 Chemically Wet 32.0F - 34F 31F 95 2% 0.00 in - 0% 4 mhos 453 - Yes - - -
11/20/2017 10:14 Wet 32.2F - 34F 31F 95 2% 0.00 in - 0% 5 mhos 534 - Yes - - -
11/20/2017 10:04 Chemically Wet 32.0F - 34F 31F 95 2% 0.00 in - 0% 5 mhos 584 - Yes - - -
11/20/2017 10:01 Chemically Wet 32.0F - 34F 31F 95 2% 0.00 in - 0% 5 mhos 585 - Yes - - -
11/20/2017 09:54 Chemically Wet 31.8F - 34F 31F 95 3% 0.00 in - 0% 6 mhos 672 - Yes - - -
11/20/2017 09:46 Chemically Wet 31.6F - 34F 31F 95 3% 0.00 in - 0% 8 mhos 874 - Yes - - -
11/20/2017 09:44 Chemically Wet 31.6F - 34F 31F 95 3% 0.00 in - 0% 8 mhos 888 - Yes - - -
11/20/2017 09:34 Chemically Wet 31.5F - 34F 32F 95 1% - - 15% 3 mhos 378 - Yes - - -
Date/Time
(MST)
Sf
Temp Chem Water Layer Surface Precipitation
Sfc Pvt Sub Frz Factor Pct Dpth DpthThk IcePct Cond Salin FI Type Intens Accum Rate
11/20/2017 09:31 Chemically Wet 31.5F - 34F 32F 95 2% - - 31% 4 mhos 411 - Yes - - -
11/20/2017 09:24 Chemically Wet 31.5F - 34F 32F 95 2% - - 30% 4 mhos 415 - Yes - - -
11/20/2017 09:16 Chemically Wet 31.3F - 34F 32F 95 2% - - 47% 4 mhos 399 - Yes - - -
11/20/2017 09:14 Chemically Wet 31.3F - 34F 32F 95 2% - - 47% 4 mhos 399 - Yes - - -
11/20/2017 09:04 Chemically Wet 31.1F - 34F 32F 95 1% - - 58% 4 mhos 381 - Yes - - -
11/20/2017 09:01 Chemically Wet 31.1F - 34F 32F 95 1% - - 61% 3 mhos 348 - Yes - - -
11/20/2017 08:54 Chemically Wet 30.9F - 34F 32F 95 1% - - 74% 2 mhos 270 - Yes - - -
11/20/2017 08:46 Chemically Wet 30.7F - 34F 32F 95 1% - - 71% 3 mhos 345 - Yes - - -
11/20/2017 08:44 Chemically Wet 30.6F - 34F 32F 95 1% - - 75% 3 mhos 337 - Yes - - -
11/20/2017 08:34 Ice Warning 30.4F - 34F 32F 95 0% - - 95% 1 mhos 78 - Yes - - -
11/20/2017 08:31 Ice Warning 30.4F - 34F 32F 95 0% - - 96% 1 mhos 68 - Yes - - -
11/20/2017 08:24 Ice Warning 30.4F - 34F 32F 95 0% - - 96% 1 mhos 64 - Yes - - -
11/20/2017 08:16 Ice Warning 30.2F - 34F 32F 95 0% - - 97% 1 mhos 56 - Yes - - -
11/20/2017 08:14 Ice Warning 30.2F - 34F 32F 95 0% - - 97% 1 mhos 57 - Yes - - -
11/20/2017 08:04 Ice Warning 30.2F - 34F 32F 95 0% - - 97% 0 mhos 45 - Yes - - -
Date/Time
(MST)
Sf
Temp Chem Water Layer Surface Precipitation
Sfc Pvt Sub Frz Factor Pct Dpth DpthThk IcePct Cond Salin FI Type Intens Accum Rate
11/20/2017 08:01 Ice Warning 30.2F - 34F 32F 95 0% - - 98% 0 mhos 28 - Yes - - -
11/20/2017 07:54 Ice Warning 30.2F - 34F 32F 95 0% - - 99% 0 mhos 16 - Yes - - -
11/20/2017 07:46 Ice Warning 30.2F - 34F 32F 95 0% - - 99% 0 mhos 17 - Yes - - -
11/20/2017 07:44 Ice Warning 30.2F - 34F 32F 95 0% - - 99% 0 mhos 17 - Yes - - -
11/20/2017 07:33 Ice Warning 30.2F - 34F 32F 45 0% - - 99% 0 mhos 18 - Yes - - -
11/20/2017 07:31 Ice Warning 30.2F - 34F 32F 45 0% - - 99% 0 mhos 18 - Yes - - -
11/20/2017 07:23 Ice Warning 30.2F - 34F 32F 40 0% - - 99% 0 mhos 18 - Yes - - -
11/20/2017 07:16 Ice Warning 30.2F - 34F 32F 40 0% - - 99% 0 mhos 18 - Yes - - -
11/20/2017 07:13 Ice Warning 30.0F - 34F 32F 40 0% - - 99% 0 mhos 18 - Yes - - -
11/20/2017 07:03 Ice Warning 30.0F - 34F 32F 35 0% - - 99% 0 mhos 19 - Yes - - -
11/20/2017 07:01 Ice Warning 30.0F - 34F 32F 35 0% - - 99% 0 mhos 19 - Yes - - -
11/20/2017 06:53 Ice Warning 30.0F - 34F 32F 35 0% - - 99% 0 mhos 19 - Yes - - -
11/20/2017 06:46 Ice Warning 30.0F - 34F 32F 35 0% - - 99% 0 mhos 19 - Yes - - -
11/20/2017 06:43 Ice Warning 30.0F - 34F 32F 35 0% - - 99% 0 mhos 19 - Yes - - -
11/20/2017 06:33 Ice Warning 29.8F - 34F 32F 30 0% - - 99% 0 mhos 20 - Yes - - -
Date/Time
(MST)
Sf
Temp Chem Water Layer Surface Precipitation
Sfc Pvt Sub Frz Factor Pct Dpth DpthThk IcePct Cond Salin FI Type Intens Accum Rate
11/20/2017 06:31 Ice Warning 29.8F - 34F 32F 30 0% - - 99% 0 mhos 20 - Yes - - -
11/20/2017 06:23 Ice Warning 29.8F - 34F 32F 30 0% - - 99% 0 mhos 20 - Yes - - -
11/20/2017 06:16 Ice Warning 29.8F - 34F 32F 30 0% - - 99% 0 mhos 21 - Yes - - -
11/20/2017 06:13 Ice Warning 29.8F - 34F 32F 30 0% - - 99% 0 mhos 21 - Yes - - -
11/20/2017 06:03 Ice Warning 29.8F - 34F 32F 40 0% - - 99% 0 mhos 23 - Yes - - -
11/20/2017 06:01 Ice Warning 29.8F - 34F 32F 40 0% - - 99% 0 mhos 23 - Yes - - -
11/20/2017 05:53 Ice Warning 29.7F - 34F 32F 45 0% - - 99% 0 mhos 22 - Yes - - -
11/20/2017 05:46 Ice Warning 29.7F - 34F 32F 65 0% - - 99% 0 mhos 24 - Yes - - -
11/20/2017 05:43 Ice Warning 29.7F - 34F 32F 60 0% - - 99% 0 mhos 24 - Yes - - -
11/20/2017 05:33 Ice Warning 29.5F - 34F 32F 50 0% - - 99% 0 mhos 27 - Yes - - -
11/20/2017 05:31 Ice Warning 29.5F - 34F 32F 45 0% - - 99% 0 mhos 28 - Yes - - -
11/20/2017 05:23 Ice Warning 29.5F - 34F 32F 40 0% - - 99% 0 mhos 31 - Yes - - -
11/20/2017 05:16 Ice Warning 29.3F - 34F 32F 40 0% - - 99% 0 mhos 34 - Yes - - -
11/20/2017 05:13 Ice Warning 29.3F - 34F 32F 40 0% - - 99% 0 mhos 34 - Yes - - -
11/20/2017 05:03 Ice Warning 29.1F - 34F 32F 35 0% - - 99% 0 mhos 36 - Yes - - -
Date/Time
(MST)
Sf
Temp Chem Water Layer Surface Precipitation
Sfc Pvt Sub Frz Factor Pct Dpth DpthThk IcePct Cond Salin FI Type Intens Accum Rate
11/20/2017 05:01 Ice Warning 29.1F - 34F 32F 35 0% - - 99% 0 mhos 37 - Yes - - -
11/20/2017 04:53 Ice Warning 29.1F - 34F 32F 30 0% - - 99% 0 mhos 39 - Yes - - -
11/20/2017 04:46 Ice Warning 29.1F - 34F 32F 25 0% - - 99% 0 mhos 39 - Yes - - -
11/20/2017 04:43 Ice Warning 29.1F - 34F 32F 15 0% - - 99% 0 mhos 31 - Yes - - -
11/20/2017 04:33 Ice Warning 29.5F - 34F 32F 5 0% - - 100% 0 mhos 3 - Yes - - -
11/20/2017 04:31 Ice Warning 29.7F - 34F 32F 5 0% - - 100% 0 mhos 2 - Yes - - -
11/20/2017 04:23 Ice Warning 29.7F - 34F 32F 5 0% - - 100% 0 mhos 1 - None None - -
11/20/2017 04:16 Ice Warning 29.5F - 34F 32F 5 0% - - 100% 0 mhos 1 - None None - -
11/20/2017 04:13 Ice Warning 29.5F - 34F 32F 5 0% - - 100% 0 mhos 1 - None None - -
11/20/2017 04:03 Ice Warning 29.5F - 34F 32F 5 0% - - 100% 0 mhos 1 - None None - -
11/20/2017 04:01 Ice Warning 29.5F - 34F 32F 5 0% - - 100% 0 mhos 1 - None None - -
11/20/2017 03:53 Ice Warning 29.3F - 34F 32F 5 0% - - 100% 0 mhos 1 - None None - -
11/20/2017 03:46 Ice Warning 29.3F - 34F 32F 5 0% - - 100% 0 mhos 1 - None None - -
11/20/2017 03:42 Ice Warning 29.3F - 34F 32F 5 0% - - 100% 0 mhos 1 - Yes - - -
11/20/2017 03:32 Ice Watch 29.1F - 34F - 5 - - - - 0 mhos 1 - None None - -
Date/Time
(MST)
Sf
Temp Chem Water Layer Surface Precipitation
Sfc Pvt Sub Frz Factor Pct Dpth DpthThk IcePct Cond Salin FI Type Intens Accum Rate
11/20/2017 03:31 Ice Watch 29.1F - 34F - 5 - - - - 0 mhos 1 - None None - -
11/20/2017 03:22 Ice Watch 29.1F - 34F - 5 - - - - 0 mhos 1 - None None - -
11/20/2017 03:16 Ice Watch 29.1F - 34F - 5 - - - - 0 mhos 1 - None None - -
11/20/2017 03:12 Ice Watch 29.1F - 34F - 5 - - - - 0 mhos 1 - None None - -
11/20/2017 03:02 Ice Watch 28.9F - 34F - 5 - - - - 0 mhos 1 - None None - -
11/20/2017 03:01 Ice Watch 28.9F - 34F - 5 - - - - 0 mhos 1 - None None - -
11/20/2017 02:52 Ice Watch 28.8F - 34F - 5 - - - - 0 mhos 1 - None None - -
11/20/2017 02:46 Ice Watch 28.8F - 34F - 5 - - - - 0 mhos 1 - None None - -
11/20/2017 02:42 Ice Watch 28.8F - 34F - 5 - - - - 0 mhos 1 - None None - -
11/20/2017 02:32 Ice Watch 28.4F - 34F - 5 - - - - 0 mhos 1 - None None - -
11/20/2017 02:31 Ice Watch 28.4F - 34F - 5 - - - - 0 mhos 1 - None None - -
11/20/2017 02:22 Ice Watch 28.4F - 34F - 5 - - - - 0 mhos 1 - None None - -
11/20/2017 02:16 Ice Watch 28.2F - 34F - 5 - - - - 0 mhos 1 - None None - -
11/20/2017 02:12 Ice Watch 28.2F - 34F - 5 - - - - 0 mhos 1 - None None - -
11/20/2017 02:02 Ice Watch 28.0F - 34F - 5 - - - - 0 mhos 1 - None None - -
Date/Time
(MST)
Sf
Temp Chem Water Layer Surface Precipitation
Sfc Pvt Sub Frz Factor Pct Dpth DpthThk IcePct Cond Salin FI Type Intens Accum Rate
11/20/2017 02:01 Ice Watch 28.0F - 34F - 5 - - - - 0 mhos 1 - None None - -
11/20/2017 01:52 Ice Watch 27.7F - 34F - 5 - - - - 0 mhos 1 - None None - -
11/20/2017 01:46 Ice Watch 27.7F - 34F - 5 - - - - 0 mhos 1 - None None - -
11/20/2017 01:42 Ice Watch 27.7F - 34F - 5 - - - - 0 mhos 1 - None None - -
11/20/2017 01:32 Ice Watch 27.3F - 34F - 5 - - - - 0 mhos 1 - None None - -
11/20/2017 01:31 Ice Watch 27.3F - 34F - 5 - - - - 0 mhos 1 - None None - -
11/20/2017 01:22 Ice Watch 27.0F - 34F - 5 - - - - 0 mhos 1 - None None - -
11/20/2017 01:16 Ice Watch 27.1F - 34F - 5 - - - - 0 mhos 1 - None None - -
11/20/2017 01:12 Ice Watch 27.1F - 34F - 5 - - - - 0 mhos 1 - None None - -
11/20/2017 01:02 Ice Watch 27.1F - 34F - 5 - - - - 0 mhos 1 - None None - -
11/20/2017 01:01 Ice Watch 27.1F - 34F - 5 - - - - 0 mhos 1 - None None - -
11/20/2017 00:52 Ice Watch 27.0F - 34F - 5 - - - - 0 mhos 1 - None None - -
11/20/2017 00:46 Ice Watch 26.8F - 34F - 5 - - - - 0 mhos 1 - None None - -
11/20/2017 00:42 Ice Watch 26.8F - 34F - 5 - - - - 0 mhos 1 - None None - -
11/20/2017 00:32 Ice Watch 26.8F - 34F - 5 - - - - 0 mhos 1 - None None - -
Date/Time
(MST)
Sf
Temp Chem Water Layer Surface Precipitation
Sfc Pvt Sub Frz Factor Pct Dpth DpthThk IcePct Cond Salin FI Type Intens Accum Rate
11/20/2017 00:31 Ice Watch 26.8F - 34F - 5 - - - - 0 mhos 1 - None None - -
11/20/2017 00:22 Ice Watch 26.6F - 34F - 5 - - - - 0 mhos 1 - None None - -
11/20/2017 00:16 Ice Watch 25.9F - 34F - 5 - - - - 0 mhos 1 - None None - -
11/20/2017 00:12 Ice Watch 25.7F - 34F - 5 - - - - 0 mhos 1 - None None - -
11/20/2017 00:02 Ice Watch 25.2F - 34F - 5 - - - - 0 mhos 1 - None None - -
11/20/2017 00:01 Ice Watch 25.2F - 34F - 5 - - - - 0 mhos 1 - None None - -
11/19/2017 23:52 Ice Watch 25.3F - 34F - 5 - - - - 0 mhos 1 - None None - -
11/19/2017 23:46 Ice Watch 25.3F - 34F - 5 - - - - 0 mhos 1 - None None - -
11/19/2017 23:41 Ice Watch 25.2F - 34F - 5 - - - - 0 mhos 1 - None None - -
11/19/2017 23:31 Ice Watch 25.0F - 34F - 5 - - - - 0 mhos 2 - None None - -
11/19/2017 23:31 Ice Watch 25.0F - 34F - 5 - - - - 0 mhos 2 - None None - -
11/19/2017 23:21 Ice Watch 25.0F - 34F - 5 - - - - 0 mhos 2 - None None - -
11/19/2017 23:16 Ice Watch 25.0F - 34F - 5 - - - - 0 mhos 2 - None None - -
11/19/2017 23:11 Ice Watch 25.0F - 34F - 5 - - - - 0 mhos 4 - None None - -
11/19/2017 23:01 Ice Watch 25.3F - 34F - 5 - - - - 0 mhos 4 - None None - -
Date/Time
(MST)
Sf
Temp Chem Water Layer Surface Precipitation
Sfc Pvt Sub Frz Factor Pct Dpth DpthThk IcePct Cond Salin FI Type Intens Accum Rate
11/19/2017 23:01 Ice Watch 25.3F - 34F - 5 - - - - 0 mhos 4 - None None - -
11/19/2017 22:51 Ice Watch 25.2F - 34F - 5 - - - - 0 mhos 4 - None None - -
11/19/2017 22:46 Ice Watch 25.3F - 34F - 5 - - - - 0 mhos 4 - None None - -
11/19/2017 22:41 Ice Watch 25.3F - 34F - 5 - - - - 0 mhos 4 - None None - -
11/19/2017 22:31 Ice Watch 25.5F - 34F - 5 - - - - 0 mhos 3 - None None - -
11/19/2017 22:31 Ice Watch 25.5F - 34F - 5 - - - - 0 mhos 3 - None None - -
11/19/2017 22:21 Ice Watch 25.7F - 34F - 5 - - - - 0 mhos 3 - None None - -
11/19/2017 22:16 Ice Watch 25.9F - 34F - 5 - - - - 0 mhos 3 - None None - -
11/19/2017 22:11 Ice Watch 26.1F - 34F - 5 - - - - 0 mhos 4 - None None - -
11/19/2017 22:01 Ice Watch 26.6F - 34F - 5 - - - - 0 mhos 3 - None None - -
11/19/2017 22:01 Ice Watch 26.6F - 34F - 5 - - - - 0 mhos 3 - None None - -
11/19/2017 21:51 Ice Watch 27.0F - 35F - 5 - - - - 0 mhos 4 - None None - -
11/19/2017 21:46 Ice Watch 27.0F - 35F - 5 - - - - 0 mhos 4 - None None - -
11/19/2017 21:41 Ice Watch 27.1F - 35F - 5 - - - - 0 mhos 4 - None None - -
11/19/2017 21:31 Ice Watch 27.5F - 35F - 5 - - - - 0 mhos 4 - None None - -
Date/Time
(MST)
Sf
Temp Chem Water Layer Surface Precipitation
Sfc Pvt Sub Frz Factor Pct Dpth DpthThk IcePct Cond Salin FI Type Intens Accum Rate
11/19/2017 21:31 Ice Watch 27.5F - 35F - 5 - - - - 0 mhos 4 - None None - -
11/19/2017 21:21 Ice Watch 28.0F - 35F - 5 - - - - 0 mhos 4 - None None - -
11/19/2017 21:16 Ice Watch 28.2F - 35F - 5 - - - - 0 mhos 4 - None None - -
11/19/2017 21:11 Ice Watch 28.2F - 35F - 5 - - - - 0 mhos 4 - None None - -
11/19/2017 21:01 Ice Watch 28.6F - 35F - 5 - - - - 0 mhos 4 - None None - -
11/19/2017 21:01 Ice Watch 28.6F - 35F - 5 - - - - 0 mhos 4 - None None - -
11/19/2017 20:51 Ice Watch 28.6F - 35F - 5 - - - - 0 mhos 3 - None None - -
11/19/2017 20:46 Ice Watch 28.4F - 35F - 5 - - - - 0 mhos 3 - None None - -
11/19/2017 20:41 Ice Watch 28.4F - 35F - 5 - - - - 0 mhos 3 - None None - -
11/19/2017 20:31 Ice Watch 27.9F - 35F - 5 - - - - 0 mhos 0 - None None - -
11/19/2017 20:21 Ice Watch 27.9F - 35F - 5 - - - - 0 mhos 0 - None None - -
11/19/2017 20:16 Ice Watch 28.0F - 34F - 5 - - - - 0 mhos 0 - None None - -
11/19/2017 20:10 Ice Watch 28.4F - 35F - 5 - - - - 0 mhos 0 - None None - -
11/19/2017 20:01 Ice Watch 28.2F - 34F - 5 - - - - 0 mhos 0 - None None - -
11/19/2017 20:00 Ice Watch 28.2F - 34F - 5 - - - - 0 mhos 0 - None None - -
Date/Time
(MST)
Sf
Temp Chem Water Layer Surface Precipitation
Sfc Pvt Sub Frz Factor Pct Dpth DpthThk IcePct Cond Salin FI Type Intens Accum Rate
11/19/2017 19:50 Ice Watch 28.6F - 34F - 5 - - - - 0 mhos 0 - None None - -
11/19/2017 19:46 Ice Watch 28.6F - 34F - 5 - - - - 0 mhos 0 - None None - -
11/19/2017 19:40 Ice Watch 28.6F - 34F - 5 - - - - 0 mhos 0 - None None - -
11/19/2017 19:31 Ice Watch 28.4F - 34F - 5 - - - - 0 mhos 0 - None None - -
11/19/2017 19:30 Ice Watch 28.4F - 34F - 5 - - - - 0 mhos 0 - None None - -
11/19/2017 19:20 Ice Watch 28.4F - 34F - 5 - - - - 0 mhos 0 - None None - -
11/19/2017 19:16 Ice Watch 28.6F - 34F - 5 - - - - 0 mhos 0 - None None - -
11/19/2017 19:10 Ice Watch 28.6F - 34F - 5 - - - - 0 mhos 0 - None None - -
11/19/2017 19:01 Ice Watch 28.8F - 34F - 5 - - - - 0 mhos 0 - None None - -
11/19/2017 19:00 Ice Watch 28.8F - 34F - 5 - - - - 0 mhos 0 - None None - -
11/19/2017 18:50 Ice Watch 28.8F - 34F - 5 - - - - 0 mhos 0 - None None - -
11/19/2017 18:46 Ice Watch 28.8F - 34F - 5 - - - - 0 mhos 0 - None None - -
11/19/2017 18:40 Ice Watch 28.8F - 34F - 5 - - - - 0 mhos 0 - None None - -
11/19/2017 18:31 Ice Watch 28.9F - 34F - 5 - - - - 0 mhos 0 - None None - -
11/19/2017 18:30 Ice Watch 28.9F - 34F - 5 - - - - 0 mhos 0 - None None - -
Date/Time
(MST)
Sf
Temp Chem Water Layer Surface Precipitation
Sfc Pvt Sub Frz Factor Pct Dpth DpthThk IcePct Cond Salin FI Type Intens Accum Rate
11/19/2017 18:20 Ice Watch 29.1F - 34F - 5 - - - - 0 mhos 0 - None None - -
11/19/2017 18:16 Ice Watch 29.1F - 34F - 5 - - - - 0 mhos 0 - None None - -
11/19/2017 18:10 Ice Watch 29.5F - 34F - 5 - - - - 0 mhos 0 - None None - -
11/19/2017 18:01 Ice Watch 29.7F - 34F - 5 - - - - 0 mhos 0 - None None - -
11/19/2017 18:00 Ice Watch 29.7F - 34F - 5 - - - - 0 mhos 0 - None None - -
11/19/2017 17:50 Ice Watch 30.2F - 34F - 5 - - - - 0 mhos 0 - None None - -
11/19/2017 17:46 Ice Watch 30.7F - 34F - 5 - - - - 0 mhos 0 - None None - -
11/19/2017 17:40 Ice Watch 31.3F - 34F - 5 - - - - 0 mhos 0 - None None - -
11/19/2017 17:31 Ice Watch 31.8F - 34F - 5 - - - - 0 mhos 0 - None None - -
11/19/2017 17:30 Ice Watch 31.8F - 34F - 5 - - - - 0 mhos 0 - None None - -
11/19/2017 17:20 Trace Moisture 32.5F - 34F - 5 - - - - 0 mhos 0 - None None - -
11/19/2017 17:16 Trace Moisture 32.9F - 34F - 5 - - - - 0 mhos 0 - None None - -
11/19/2017 17:10 Trace Moisture 33.1F - 34F - 5 - - - - 0 mhos 0 - None None - -
11/19/2017 17:01 Trace Moisture 33.6F - 34F - 5 - - - - 0 mhos 0 - None None - -
11/19/2017 17:00 Trace Moisture 33.8F - 34F - 5 - - - - 0 mhos 0 - None None - -
Date/Time
(MST)
Sf
Temp Chem Water Layer Surface Precipitation
Sfc Pvt Sub Frz Factor Pct Dpth DpthThk IcePct Cond Salin FI Type Intens Accum Rate
11/19/2017 16:50 Dry 34.2F - 34F - - - - - - 0 mhos 0 - None None - -
11/19/2017 16:46 Dry 34.7F - 34F - - - - - - 0 mhos 0 - None None - -
11/19/2017 16:40 Trace Moisture 35.1F - 34F - 5 - - - - 0 mhos 0 - None None - -
11/19/2017 16:31 Dry 36.0F - 34F - - - - - - 0 mhos 0 - None None - -
11/19/2017 16:30 Dry 36.1F - 34F - - - - - - 0 mhos 0 - None None - -
11/19/2017 16:19 Dry 36.7F - 34F - - - - - - 0 mhos 0 - None None - -
11/19/2017 16:16 Dry 37.0F - 34F - - - - - - 0 mhos 0 - None None - -
11/19/2017 16:09 Dry 37.4F - 34F - - - - - - 0 mhos 0 - None None - -
11/19/2017 16:01 Dry 38.1F - 34F - - - - - - 0 mhos 0 - None None - -
11/19/2017 15:59 Dry 38.3F - 34F - - - - - - 0 mhos 0 - None None - -
11/19/2017 15:49 Dry 39.7F - 34F - - - - - - 0 mhos 0 - None None - -
11/19/2017 15:46 Dry 39.9F - 34F - - - - - - 0 mhos 0 - None None - -
11/19/2017 15:39 Dry 40.3F - 33F - - - - - - 0 mhos 0 - None None - -
11/19/2017 15:31 Dry 40.3F - 33F - - - - - - 0 mhos 0 - None None - -
11/19/2017 15:29 Dry 40.3F - 33F - - - - - - 0 mhos 0 - None None - -
Date/Time
(MST)
Sf
Temp Chem Water Layer Surface Precipitation
Sfc Pvt Sub Frz Factor Pct Dpth DpthThk IcePct Cond Salin FI Type Intens Accum Rate
11/19/2017 15:19 Dry 41.0F - 33F - - - - - - 0 mhos 0 - None None - -
11/19/2017 15:16 Dry 41.2F - 33F - - - - - - 0 mhos 0 - None None - -
11/19/2017 15:09 Dry 42.1F - 33F - - - - - - 0 mhos 0 - None None - -
11/19/2017 15:01 Dry 42.4F - 33F - - - - - - 0 mhos 0 - None None - -
11/19/2017 14:59 Dry 42.6F - 33F - - - - - - 0 mhos 0 - None None - -
11/19/2017 14:49 Dry 42.4F - 33F - - - - - - 0 mhos 0 - None None - -
11/19/2017 14:46 Dry 42.4F - 33F - - - - - - 0 mhos 0 - None None - -
11/19/2017 14:39 Dry 42.3F - 33F - - - - - - 0 mhos 0 - None None - -
11/19/2017 14:31 Dry 42.8F - 33F - - - - - - 0 mhos 0 - None None - -
11/19/2017 14:29 Dry 43.3F - 33F - - - - - - 0 mhos 0 - None None - -
11/19/2017 14:19 Dry 46.4F - 33F - - - - - - 0 mhos 0 - None None - -
11/19/2017 14:16 Dry 46.4F - 33F - - - - - - 0 mhos 0 - None None - -
Change End Date:

Copyright © 1998-2015 Vaisala, Inc.
All Rights Reserved
Send comments about the data to:
SCAN Web ® is a registered trademark of Vaisala, Inc.
SCAN Web Version 6.0